Time;durP1;ratioP1;P1;durP2;ratioP2;P2;SDS_P1;SDS_P2;PMS_P1;PMS_P2;Temp;Humidity;BMP_temperature;BMP_pressure;BME280_temperature;BME280_humidity;BME280_pressure;Samples;Min_cycle;Max_cycle;Signal;HPM_P1;HPM_P2
2021/01/16 00:02:01;;;;;;;21.02;10.02;;;;;;;0.31;60.65;98871.59;4882026;29;20124;-77
2021/01/16 00:04:26;;;;;;;25.95;11.27;;;;;;;0.31;60.27;98858.44;4898298;29;20124;-77
2021/01/16 00:06:52;;;;;;;14.27;8.52;;;;;;;0.31;60.48;98874.22;4898491;29;20092;-79
2021/01/16 00:09:18;;;;;;;16.98;7.85;;;;;;;0.29;60.05;98861.31;4882045;29;20056;-78
2021/01/16 00:11:44;;;;;;;12.35;7.57;;;;;;;0.27;59.98;98857.25;4882454;29;20466;-78
2021/01/16 00:14:09;;;;;;;11.93;7.10;;;;;;;0.25;60.03;98865.38;4881462;29;20388;-78
2021/01/16 00:16:34;;;;;;;15.45;7.95;;;;;;;0.23;60.42;98856.91;4881879;29;20071;-78
2021/01/16 00:19:00;;;;;;;15.20;7.47;;;;;;;0.22;60.19;98854.47;4881737;29;20033;-77
2021/01/16 00:21:25;;;;;;;10.48;7.05;;;;;;;0.22;60.28;98862.34;4881680;29;20140;-77
2021/01/16 00:23:51;;;;;;;20.48;8.73;;;;;;;0.23;60.09;98869.22;4882021;29;20029;-76
2021/01/16 00:26:16;;;;;;;12.65;8.20;;;;;;;0.23;60.19;98871.84;4881695;29;20047;-76
2021/01/16 00:28:41;;;;;;;17.63;8.52;;;;;;;0.21;60.19;98872.06;4882019;29;20442;-76
2021/01/16 00:31:07;;;;;;;14.18;7.45;;;;;;;0.22;60.10;98871.06;4879705;29;20039;-77
2021/01/16 00:33:36;;;;;;;19.17;8.02;;;;;;;0.23;60.15;98875.31;4880888;29;20521;-76
2021/01/16 00:36:02;;;;;;;;;;;;;;;0.25;59.99;98875.88;4882190;29;20021;-78
2021/01/16 00:38:29;;;;;;;12.48;7.45;;;;;;;0.21;60.10;98866.00;4881212;29;19915;-78
2021/01/16 00:40:55;;;;;;;13.35;7.47;;;;;;;0.21;60.23;98861.56;4881828;29;20029;-78
2021/01/16 00:43:21;;;;;;;12.45;7.57;;;;;;;0.22;59.82;98865.81;4881327;29;20044;-78
2021/01/16 00:45:49;;;;;;;13.98;7.18;;;;;;;0.22;59.80;98868.44;4881027;29;20029;-78
2021/01/16 00:48:20;;;;;;;14.73;8.52;;;;;;;0.23;59.96;98859.53;4881495;29;20028;-78
2021/01/16 00:50:47;;;;;;;10.90;6.75;;;;;;;0.25;59.40;98869.81;4881350;29;20544;-77
2021/01/16 00:53:12;;;;;;;13.73;7.82;;;;;;;0.25;59.04;98862.72;4897562;29;20415;-76
2021/01/16 00:55:38;;;;;;;13.07;8.25;;;;;;;0.24;58.47;98861.13;4898151;29;20066;-77
2021/01/16 00:58:15;;;;;;;15.75;8.18;;;;;;;0.23;58.16;98854.25;4881096;29;20041;-76
2021/01/16 01:00:43;;;;;;;17.33;9.05;;;;;;;0.20;58.77;98849.41;4879959;29;20035;-77
2021/01/16 01:03:09;;;;;;;14.25;7.75;;;;;;;0.21;58.29;98858.94;4897987;29;20059;-78
2021/01/16 01:05:35;;;;;;;14.40;8.02;;;;;;;0.17;58.84;98854.28;4880909;29;20442;-79
2021/01/16 01:08:01;;;;;;;17.50;8.90;;;;;;;0.17;58.83;98856.94;4880873;29;20032;-78
2021/01/16 01:10:36;;;;;;;16.23;8.52;;;;;;;0.11;58.94;98856.75;4880873;29;20033;-76
2021/01/16 01:13:02;;;;;;;15.15;8.20;;;;;;;0.08;59.09;98864.28;4897167;29;20411;-77
2021/01/16 01:15:27;;;;;;;16.40;9.35;;;;;;;0.03;59.64;98859.63;4897054;29;20033;-76
2021/01/16 01:17:54;;;;;;;20.98;9.60;;;;;;;-0.01;60.08;98861.09;4898181;29;20040;-78
2021/01/16 01:20:20;;;;;;;18.00;11.27;;;;;;;-0.07;60.79;98868.00;4880573;29;20486;-79
2021/01/16 01:22:47;;;;;;;17.52;10.13;;;;;;;-0.06;61.29;98874.84;4881299;29;20029;-80
2021/01/16 01:25:14;;;;;;;17.60;9.40;;;;;;;-0.09;61.08;98869.22;4882274;29;20065;-78
2021/01/16 01:27:39;;;;;;;19.23;10.02;;;;;;;-0.08;61.43;98866.38;4880128;29;20051;-78
2021/01/16 01:30:06;;;;;;;17.83;9.95;;;;;;;-0.09;61.97;98864.75;4880278;29;20463;-78
2021/01/16 01:32:32;;;;;;;16.95;9.88;;;;;;;-0.09;62.08;98862.13;4880488;29;20472;-78
2021/01/16 01:34:58;;;;;;;17.65;10.27;;;;;;;-0.08;61.64;98861.13;4880768;29;20032;-77
2021/01/16 01:37:23;;;;;;;17.05;9.60;;;;;;;-0.08;61.89;98861.13;4879999;29;20511;-77
2021/01/16 01:39:48;;;;;;;20.42;9.55;;;;;;;-0.04;62.16;98861.50;4880667;29;20060;-77
2021/01/16 01:42:19;;;;;;;18.98;10.30;;;;;;;0.01;61.65;98860.88;4880032;29;20032;-77
2021/01/16 01:44:45;;;;;;;20.67;9.85;;;;;;;0.04;61.11;98852.53;4879486;29;20028;-77
2021/01/16 01:47:12;;;;;;;18.00;8.98;;;;;;;0.06;61.09;98842.63;4880273;29;20080;-77
2021/01/16 01:49:38;;;;;;;17.33;8.43;;;;;;;0.07;61.03;98841.63;4880068;29;20040;-77
2021/01/16 01:52:04;;;;;;;19.83;10.00;;;;;;;0.10;60.82;98835.94;4880590;29;20029;-76
2021/01/16 01:54:30;;;;;;;22.25;8.32;;;;;;;0.14;60.46;98845.00;4880307;29;20442;-77
2021/01/16 01:56:59;;;;;;;15.68;9.45;;;;;;;0.14;60.69;98837.13;4879929;29;20068;-77
2021/01/16 01:59:26;;;;;;;12.32;7.95;;;;;;;0.14;60.28;98835.28;4879343;29;20558;-77
2021/01/16 02:01:53;;;;;;;16.10;9.10;;;;;;;0.14;60.27;98826.59;4879642;29;20033;-76
2021/01/16 02:04:21;;;;;;;18.52;9.60;;;;;;;0.13;60.62;98825.78;4880317;29;20055;-77
2021/01/16 02:06:47;;;;;;;20.40;9.32;;;;;;;0.10;60.49;98823.59;4879459;29;20036;-77
2021/01/16 02:09:12;;;;;;;19.17;8.98;;;;;;;0.08;60.82;98833.50;4880350;29;20097;-77
2021/01/16 02:11:38;;;;;;;21.30;10.00;;;;;;;0.08;60.61;98830.88;4879823;29;20035;-77
2021/01/16 02:14:03;;;;;;;17.02;9.63;;;;;;;0.08;60.26;98822.19;4877780;29;20496;-78
2021/01/16 02:16:45;;;;;;;16.30;8.95;;;;;;;0.09;60.52;98824.59;4881122;29;20047;-78
2021/01/16 02:19:12;;;;;;;18.08;10.50;;;;;;;0.09;60.27;98829.88;4880118;29;20517;-78
2021/01/16 02:21:46;;;;;;;19.02;9.63;;;;;;;0.11;60.46;98819.13;4880046;29;20036;-79
2021/01/16 02:24:19;;;;;;;20.73;10.90;;;;;;;0.10;60.12;98814.91;4880122;29;20490;-79
2021/01/16 02:26:52;;;;;;;21.40;11.65;;;;;;;0.09;60.06;98819.34;4879247;29;20490;-78
2021/01/16 02:29:18;;;;;;;21.42;10.88;;;;;;;0.07;60.11;98812.69;4880293;29;20067;-78
2021/01/16 02:32:05;;;;;;;24.10;11.95;;;;;;;0.05;59.89;98806.84;4879825;29;20491;-78
2021/01/16 02:34:37;;;;;;;18.85;10.18;;;;;;;-0.05;60.10;98815.19;4880198;29;20084;-79
2021/01/16 02:37:05;;;;;;;21.30;11.90;;;;;;;-0.05;60.16;98816.00;4879464;29;20032;-80
2021/01/16 02:39:50;;;;;;;23.25;11.63;;;;;;;-0.07;59.70;98818.03;4879250;29;20119;-77
2021/01/16 02:42:35;;;;;;;23.95;10.93;;;;;;;-0.09;60.07;98814.81;4879384;29;20048;-77
2021/01/16 02:45:11;;;;;;;26.27;12.60;;;;;;;-0.08;60.13;98807.75;4879576;29;20395;-78
2021/01/16 02:48:04;;;;;;;20.60;11.38;;;;;;;-0.10;59.26;98807.94;4879528;29;20036;-77
2021/01/16 02:50:30;;;;;;;23.20;11.38;;;;;;;-0.12;59.36;98803.91;4879416;29;20064;-78
2021/01/16 02:52:58;;;;;;;22.27;10.55;;;;;;;-0.13;59.62;98799.69;4880055;29;20083;-79
2021/01/16 02:55:24;;;;;;;22.10;11.68;;;;;;;-0.13;59.72;98794.44;4879407;29;20059;-79
2021/01/16 02:57:49;;;;;;;20.85;10.55;;;;;;;-0.11;59.06;98798.47;4879310;29;20068;-80
2021/01/16 03:00:21;;;;;;;20.73;11.30;;;;;;;-0.12;59.52;98799.47;4880275;29;20032;-80
2021/01/16 03:02:47;;;;;;;21.15;12.23;;;;;;;-0.11;59.19;98800.28;4879784;29;20123;-79
2021/01/16 03:05:13;;;;;;;20.38;11.35;;;;;;;-0.12;58.91;98803.91;4897149;29;20079;-78
2021/01/16 03:07:40;;;;;;;20.55;10.10;;;;;;;-0.12;59.07;98806.53;4878781;29;20036;-79
2021/01/16 03:10:08;;;;;;;19.35;10.57;;;;;;;-0.09;59.12;98814.00;4879800;29;20515;-79
2021/01/16 03:12:35;;;;;;;21.55;11.45;;;;;;;-0.09;58.67;98806.13;4879675;29;20462;-79
2021/01/16 03:15:09;;;;;;;17.15;10.23;;;;;;;-0.10;58.49;98797.41;4879821;29;20033;-79
2021/01/16 03:17:47;;;;;;;20.45;10.77;;;;;;;-0.05;58.57;98808.13;4879609;29;20537;-77
2021/01/16 03:20:17;;;;;;;27.25;11.77;;;;;;;-0.04;58.31;98801.84;4896333;29;20434;-79
2021/01/16 03:22:42;;;;;;;21.95;10.30;;;;;;;-0.04;59.02;98795.78;4879456;29;20032;-78
2021/01/16 03:25:08;;;;;;;22.02;10.90;;;;;;;-0.02;58.35;98804.25;4883356;29;20104;-76
2021/01/16 03:27:34;;;;;;;19.23;10.65;;;;;;;0.01;58.94;98801.19;4884757;29;20033;-77
2021/01/16 03:29:59;;;;;;;20.05;9.57;;;;;;;-0.03;58.90;98805.28;4885440;29;20040;-77
2021/01/16 03:32:25;;;;;;;15.88;9.63;;;;;;;-0.05;58.63;98796.78;4885287;29;20041;-77
2021/01/16 03:34:50;;;;;;;23.45;11.45;;;;;;;-0.10;58.70;98792.16;4885098;29;20040;-77
2021/01/16 03:37:17;;;;;;;20.83;10.15;;;;;;;-0.11;59.02;98787.94;4885531;29;20036;-77
2021/01/16 03:39:43;;;;;;;20.45;9.73;;;;;;;-0.13;59.31;98797.84;4903125;29;20032;-77
2021/01/16 03:42:09;;;;;;;20.65;10.20;;;;;;;-0.17;59.06;98794.84;4885730;29;20473;-77
2021/01/16 03:44:35;;;;;;;20.27;10.77;;;;;;;-0.20;59.22;98790.00;4885290;29;20024;-78
2021/01/16 03:47:02;;;;;;;21.38;10.70;;;;;;;-0.22;58.90;98789.44;4885774;29;20055;-77
2021/01/16 03:49:27;;;;;;;17.13;10.57;;;;;;;-0.18;58.95;98793.22;4885258;29;20083;-79
2021/01/16 03:51:53;;;;;;;17.38;10.55;;;;;;;-0.18;59.30;98792.44;4885975;29;20029;-77
2021/01/16 03:54:18;;;;;;;19.77;10.35;;;;;;;-0.15;59.26;98791.22;4901980;29;20052;-77
2021/01/16 03:56:43;;;;;;;17.20;10.88;;;;;;;-0.16;59.05;98790.38;4902454;29;20040;-76
2021/01/16 03:59:09;;;;;;;21.20;9.45;;;;;;;-0.16;59.28;98800.91;4885905;29;20032;-77
2021/01/16 04:01:37;;;;;;;20.90;10.65;;;;;;;-0.21;59.92;98793.66;4885605;29;20046;-77
2021/01/16 04:04:03;;;;;;;20.13;11.57;;;;;;;-0.21;59.54;98795.47;4885379;29;20049;-77
2021/01/16 04:06:29;;;;;;;23.83;11.77;;;;;;;-0.22;59.70;98793.84;4886674;29;20115;-77
2021/01/16 04:08:54;;;;;;;22.95;10.80;;;;;;;-0.18;59.60;98798.47;4886268;29;20119;-78
2021/01/16 04:11:20;;;;;;;17.02;10.30;;;;;;;-0.17;59.64;98794.06;4886653;29;20036;-79
2021/01/16 04:13:47;;;;;;;16.98;10.52;;;;;;;-0.20;59.93;98792.63;4886298;29;20024;-77
2021/01/16 04:16:12;;;;;;;25.00;11.63;;;;;;;-0.19;59.74;98786.34;4886580;29;20033;-77
2021/01/16 04:18:38;;;;;;;19.67;10.95;;;;;;;-0.17;59.64;98776.44;4888342;29;20032;-77
2021/01/16 04:21:04;;;;;;;23.50;10.95;;;;;;;-0.18;59.43;98774.03;4892094;29;20112;-77
2021/01/16 04:23:29;;;;;;;21.77;11.10;;;;;;;-0.20;59.49;98766.34;4892739;29;20100;-78
2021/01/16 04:25:55;;;;;;;21.67;10.77;;;;;;;-0.25;60.09;98753.03;4890795;29;20067;-77
2021/01/16 04:28:21;;;;;;;22.73;11.38;;;;;;;-0.27;60.26;98755.09;4886423;29;20573;-77
2021/01/16 04:30:46;;;;;;;22.92;11.95;;;;;;;-0.28;60.03;98763.16;4884350;29;20048;-78
2021/01/16 04:33:12;;;;;;;20.63;10.30;;;;;;;-0.28;60.31;98766.63;4884636;29;20059;-76
2021/01/16 04:35:38;;;;;;;18.58;11.15;;;;;;;-0.30;60.79;98759.97;4891524;29;20490;-78
2021/01/16 04:38:03;;;;;;;23.58;11.27;;;;;;;-0.31;60.60;98760.97;4883637;29;20028;-76
2021/01/16 04:40:29;;;;;;;19.13;11.48;;;;;;;-0.33;60.62;98769.06;4898624;29;20039;-76
2021/01/16 04:42:55;;;;;;;26.17;12.82;;;;;;;-0.37;60.83;98773.94;4881113;29;20490;-78
2021/01/16 04:45:21;;;;;;;21.42;11.45;;;;;;;-0.33;60.99;98784.81;4882036;29;20490;-78
2021/01/16 04:47:49;;;;;;;24.20;12.60;;;;;;;-0.32;61.17;98783.81;4881198;29;20148;-78
2021/01/16 04:50:19;;;;;;;21.50;11.85;;;;;;;-0.30;60.57;98792.28;4881350;29;20108;-77
2021/01/16 04:52:46;;;;;;;22.20;11.63;;;;;;;-0.26;60.51;98790.06;4880899;29;20052;-78
2021/01/16 04:55:15;;;;;;;26.65;13.70;;;;;;;-0.25;60.19;98792.47;4880947;29;20036;-78
2021/01/16 04:57:42;;;;;;;23.05;13.00;;;;;;;-0.21;60.33;98790.22;4880804;29;20035;-78
2021/01/16 05:00:12;;;;;;;21.90;11.52;;;;;;;-0.19;60.00;98788.19;4881382;29;20115;-78
2021/01/16 05:02:40;;;;;;;26.55;12.95;;;;;;;-0.20;59.83;98787.38;4880296;29;20052;-79
2021/01/16 05:05:10;;;;;;;24.38;12.45;;;;;;;-0.22;60.02;98789.44;4881271;29;20048;-77
2021/01/16 05:07:38;;;;;;;24.08;12.02;;;;;;;-0.23;60.56;98785.19;4880738;29;20040;-78
2021/01/16 05:10:08;;;;;;;25.25;12.02;;;;;;;-0.20;60.33;98784.75;4880778;29;20512;-79
2021/01/16 05:12:47;;;;;;;27.95;12.70;;;;;;;-0.18;60.64;98785.34;4881038;29;20064;-78
2021/01/16 05:15:21;;;;;;;26.92;11.68;;;;;;;-0.17;60.63;98786.97;4883108;29;20036;-78
2021/01/16 05:18:04;;;;;;;22.35;13.00;;;;;;;-0.23;61.02;98776.47;4880463;29;20036;-78
2021/01/16 05:20:31;;;;;;;21.30;12.93;;;;;;;-0.19;61.21;98775.84;4881185;29;20024;-79
2021/01/16 05:23:20;;;;;;;23.70;12.52;;;;;;;-0.17;61.13;98775.66;4880966;29;20123;-80
2021/01/16 05:29:18;;;;;;;24.75;13.85;;;;;;;-0.17;61.25;98771.19;4883227;29;20034;-81
2021/01/16 05:31:57;;;;;;;26.45;13.48;;;;;;;-0.17;61.00;98775.66;4901291;29;20029;-81
2021/01/16 05:34:24;;;;;;;26.60;13.32;;;;;;;-0.19;61.28;98765.34;4881496;29;20059;-78
2021/01/16 05:36:50;;;;;;;20.90;12.48;;;;;;;-0.18;61.10;98760.91;4879769;29;20111;-79
2021/01/16 05:39:17;;;;;;;33.90;15.00;;;;;;;-0.18;61.80;98753.00;4880545;29;20564;-77
2021/01/16 05:41:44;;;;;;;28.92;12.90;;;;;;;-0.17;61.61;98758.06;4879919;29;20040;-78
2021/01/16 05:44:10;;;;;;;19.00;12.07;;;;;;;-0.17;61.13;98759.88;4880881;29;20040;-77
2021/01/16 05:46:36;;;;;;;27.00;13.50;;;;;;;-0.15;60.90;98762.28;4880570;29;20032;-77
2021/01/16 05:49:03;;;;;;;30.65;14.43;;;;;;;-0.14;60.44;98756.03;4880309;29;20086;-78
2021/01/16 05:51:29;;;;;;;24.88;11.95;;;;;;;-0.14;60.77;98748.94;4880134;29;20123;-77
2021/01/16 05:53:58;;;;;;;18.40;11.32;;;;;;;-0.14;60.99;98750.75;4880045;29;20406;-76
2021/01/16 05:56:24;;;;;;;26.52;12.68;;;;;;;-0.18;61.21;98755.63;4880081;29;20029;-78
2021/01/16 05:58:51;;;;;;;24.52;12.27;;;;;;;-0.22;61.17;98743.94;4879974;29;20029;-77
2021/01/16 06:01:25;;;;;;;25.30;12.63;;;;;;;-0.24;61.45;98748.59;4879893;29;20135;-78
2021/01/16 06:03:52;;;;;;;25.38;13.70;;;;;;;-0.26;61.49;98748.81;4879896;29;20056;-77
2021/01/16 06:06:18;;;;;;;23.63;11.15;;;;;;;-0.31;61.48;98747.84;4880057;29;20045;-78
2021/01/16 06:08:51;;;;;;;23.25;12.20;;;;;;;-0.34;61.39;98741.19;4880122;29;20040;-76
2021/01/16 06:11:18;;;;;;;20.65;12.38;;;;;;;-0.38;61.65;98751.31;4897076;29;20047;-77
2021/01/16 06:13:46;;;;;;;22.20;12.38;;;;;;;-0.40;61.86;98747.28;4881691;29;20031;-77
2021/01/16 06:16:19;;;;;;;20.58;10.43;;;;;;;-0.41;61.91;98750.94;4879833;29;20486;-78
2021/01/16 06:18:50;;;;;;;30.48;14.00;;;;;;;-0.44;62.59;98754.78;4880628;29;20048;-77
2021/01/16 06:21:27;;;;;;;21.85;11.60;;;;;;;-0.44;62.25;98749.53;4888157;29;20056;-79
2021/01/16 06:23:55;;;;;;;26.50;12.70;;;;;;;-0.41;62.39;98756.97;4874797;29;20032;-78
2021/01/16 06:26:21;;;;;;;22.33;12.50;;;;;;;-0.41;62.49;98749.09;4879746;29;20032;-78
2021/01/16 06:28:58;;;;;;;22.15;11.75;;;;;;;-0.37;62.33;98754.75;4878501;29;20032;-80
2021/01/16 06:31:25;;;;;;;25.48;11.27;;;;;;;-0.36;62.18;98756.34;4900794;29;20437;-81
2021/01/16 06:37:51;;;;;;;23.35;11.73;;;;;;;-0.41;62.61;98756.97;4902034;29;20065;-82
2021/01/16 06:40:36;;;;;;;20.20;11.30;;;;;;;-0.37;62.59;98762.63;4894297;29;20068;-81
2021/01/16 06:43:14;;;;;;;21.10;11.43;;;;;;;-0.38;62.82;98758.38;4857354;29;20098;-79
2021/01/16 06:45:43;;;;;;;20.80;12.18;;;;;;;-0.39;62.64;98775.97;4882931;29;20036;-80
2021/01/16 06:48:10;;;;;;;23.08;11.82;;;;;;;-0.38;62.84;98777.59;4884348;29;20041;-78
2021/01/16 06:50:37;;;;;;;22.77;13.02;;;;;;;-0.40;62.94;98784.88;4897430;29;20036;-80
2021/01/16 06:53:03;;;;;;;24.55;12.95;;;;;;;-0.42;62.80;98781.63;4879362;29;20039;-78
2021/01/16 06:55:31;;;;;;;31.77;14.63;;;;;;;-0.39;63.23;98781.22;4881397;29;20029;-78
2021/01/16 06:58:16;;;;;;;30.25;14.05;;;;;;;-0.32;63.54;98783.81;4882552;29;20128;-78
2021/01/16 07:00:42;;;;;;;30.70;15.80;;;;;;;-0.29;63.63;98778.16;4880801;29;20453;-78
2021/01/16 07:03:13;;;;;;;36.47;19.65;;;;;;;-0.24;63.81;98778.31;4881215;29;21622;-78
2021/01/16 07:05:38;;;;;;;33.97;16.05;;;;;;;-0.19;63.30;98788.19;4897949;29;20510;-78
2021/01/16 07:08:04;;;;;;;30.77;15.73;;;;;;;-0.13;63.19;98784.72;4877851;29;20145;-77
2021/01/16 07:10:37;;;;;;;24.73;12.00;;;;;;;-0.08;62.73;98784.09;4879322;29;20040;-76
2021/01/16 07:13:04;;;;;;;25.48;12.45;;;;;;;-0.02;62.98;98786.66;4878555;29;20025;-78
2021/01/16 07:15:30;;;;;;;29.80;14.35;;;;;;;0.04;62.56;98787.63;4878448;29;20111;-78
2021/01/16 07:17:59;;;;;;;18.17;10.70;;;;;;;0.08;61.90;98782.75;4878745;29;20597;-80
2021/01/16 07:20:25;;;;;;;23.40;11.85;;;;;;;0.11;62.41;98787.56;4878838;29;20040;-78
2021/01/16 07:22:52;;;;;;;24.13;12.77;;;;;;;0.17;62.20;98791.97;4878678;29;20037;-78
2021/01/16 07:25:19;;;;;;;23.50;11.73;;;;;;;0.24;61.91;98792.72;4879861;29;20040;-79
2021/01/16 07:27:46;;;;;;;26.33;12.82;;;;;;;0.30;61.53;98797.13;4879177;29;20040;-78
2021/01/16 07:30:14;;;;;;;19.58;11.95;;;;;;;0.34;61.12;98788.81;4878629;29;20071;-77
2021/01/16 07:32:41;;;;;;;18.97;10.17;;;;;;;0.40;60.60;98786.13;4882894;29;20053;-79
2021/01/16 07:35:24;;;;;;;22.75;11.13;;;;;;;0.48;60.26;98785.84;4878942;29;20060;-78
2021/01/16 07:37:51;;;;;;;22.83;11.32;;;;;;;0.52;60.44;98788.84;4877650;29;20466;-79
2021/01/16 07:40:20;;;;;;;19.52;10.57;;;;;;;0.58;60.11;98798.53;4878890;29;20032;-80
2021/01/16 07:42:51;;;;;;;24.27;11.50;;;;;;;0.62;59.60;98791.81;4878495;29;20044;-80
2021/01/16 07:45:23;;;;;;;23.92;11.90;;;;;;;0.66;59.29;98792.19;4878242;29;20119;-79
2021/01/16 07:47:51;;;;;;;20.27;10.10;;;;;;;0.70;58.88;98801.25;4878975;29;20104;-79
2021/01/16 07:50:22;;;;;;;16.40;10.15;;;;;;;0.74;58.70;98791.09;4878444;29;20047;-79
2021/01/16 07:52:57;;;;;;;21.60;10.90;;;;;;;0.83;58.64;98779.28;4878324;29;20060;-79
2021/01/16 07:55:34;;;;;;;23.20;10.13;;;;;;;0.89;58.38;98788.91;4878833;29;20192;-78
2021/01/16 07:58:05;;;;;;;21.60;10.57;;;;;;;0.96;58.82;98783.56;4877773;29;20043;-78
2021/01/16 08:00:37;;;;;;;17.45;10.20;;;;;;;1.00;58.26;98791.84;4872889;29;20052;-79
2021/01/16 08:03:30;;;;;;;23.67;13.70;;;;;;;0.98;57.80;98791.25;4880822;29;20112;-79
2021/01/16 08:06:14;;;;;;;27.45;12.40;;;;;;;1.00;57.68;98791.84;4877146;29;20040;-77
2021/01/16 08:09:17;;;;;;;18.45;10.73;;;;;;;0.99;57.65;98798.94;4882669;29;20044;-80
2021/01/16 08:12:00;;;;;;;19.73;10.27;;;;;;;1.02;57.47;98808.22;4895249;29;20079;-80
2021/01/16 08:15:05;;;;;;;18.23;9.65;;;;;;;1.01;57.29;98804.78;4905087;29;20028;-81
2021/01/16 08:18:02;;;;;;;16.25;9.55;;;;;;;1.03;56.85;98801.94;4892817;29;20028;-81
2021/01/16 08:21:15;;;;;;;19.63;9.93;;;;;;;0.99;56.57;98806.03;4889838;29;20035;-80
2021/01/16 08:33:39;;;;;;;17.60;8.88;;;;;;;1.18;56.55;98802.38;5110934;23;20109;-81
2021/01/16 08:36:19;;;;;;;19.80;9.63;;;;;;;1.26;56.25;98793.38;4856096;29;20060;-80
2021/01/16 08:38:47;;;;;;;16.60;9.85;;;;;;;1.30;55.83;98794.53;4887803;29;20100;-78
2021/01/16 08:41:25;;;;;;;15.35;8.52;;;;;;;1.38;55.78;98799.50;4865393;29;20028;-79
2021/01/16 08:47:33;;;;;;;19.05;8.63;;;;;;;1.44;55.98;98790.72;4892665;29;20135;-80
2021/01/16 08:59:59;;;;;;;16.23;9.35;;;;;;;1.51;56.50;98785.34;5235289;23;20059;-79
2021/01/16 09:02:29;;;;;;;16.58;9.48;;;;;;;1.50;56.39;98785.56;4912276;29;20032;-80
2021/01/16 09:29:31;;;;;;;15.70;7.82;;;;;;;1.54;56.85;98740.09;5095551;23;21500;-80
2021/01/16 09:35:00;;;;;;;12.18;6.00;;;;;;;1.56;55.55;98739.88;4977226;23;20056;-80
2021/01/16 09:41:07;;;;;;;10.10;7.00;;;;;;;1.55;56.18;98735.63;4875159;29;20116;-79
2021/01/16 09:46:52;;;;;;;14.80;8.52;;;;;;;1.53;56.38;98727.94;4978941;23;20060;-82
2021/01/16 09:49:44;;;;;;;13.15;7.82;;;;;;;1.52;57.12;98723.69;4889065;29;20028;-79
2021/01/16 09:52:11;;;;;;;16.35;7.88;;;;;;;1.46;57.49;98726.44;4862217;29;20029;-79
2021/01/16 09:54:40;;;;;;;16.40;9.30;;;;;;;1.41;58.03;98716.56;4867925;29;20028;-79
2021/01/16 09:57:08;;;;;;;21.35;9.02;;;;;;;1.38;58.70;98712.56;4887357;29;20024;-80
2021/01/16 09:59:35;;;;;;;19.10;9.27;;;;;;;1.39;59.37;98719.44;4897264;29;20507;-80
2021/01/16 10:02:09;;;;;;;23.17;11.02;;;;;;;1.38;59.67;98722.28;4886254;29;20120;-80
2021/01/16 10:04:58;;;;;;;20.77;12.02;;;;;;;1.39;60.18;98723.88;4888239;29;20040;-79
2021/01/16 10:07:46;;;;;;;17.08;9.32;;;;;;;1.39;60.45;98718.63;4892054;29;20044;-79
2021/01/16 10:10:20;;;;;;;16.40;8.70;;;;;;;1.33;61.08;98711.59;4885892;29;20037;-79
2021/01/16 10:12:46;;;;;;;14.10;8.30;;;;;;;1.32;61.50;98696.81;4900630;29;20115;-78
2021/01/16 10:15:17;;;;;;;16.25;8.27;;;;;;;1.29;62.72;98684.91;4875436;29;20115;-78
2021/01/16 10:17:51;;;;;;;17.40;9.75;;;;;;;1.29;62.75;98684.91;4888818;29;20036;-79
2021/01/16 10:20:17;;;;;;;16.52;8.75;;;;;;;1.26;63.43;98688.00;4894455;29;20035;-78
2021/01/16 10:22:52;;;;;;;25.20;11.35;;;;;;;1.27;63.51;98682.50;4883959;29;20028;-74
2021/01/16 10:25:19;;;;;;;23.83;10.63;;;;;;;1.30;64.10;98675.97;4915674;29;20095;-75
2021/01/16 10:27:49;;;;;;;18.88;10.32;;;;;;;1.31;64.05;98679.41;4911684;29;20036;-74
2021/01/16 10:30:23;;;;;;;20.40;11.93;;;;;;;1.32;64.93;98667.84;4879647;29;20055;-75
2021/01/16 10:32:51;;;;;;;16.60;9.63;;;;;;;1.25;64.83;98668.75;4896123;29;20044;-76
2021/01/16 10:35:21;;;;;;;40.47;17.83;;;;;;;1.25;64.82;98668.75;4895670;29;20036;-74
2021/01/16 10:37:47;;;;;;;85.03;28.55;;;;;;;1.29;64.38;98650.66;4879678;29;20574;-75
2021/01/16 10:40:13;;;;;;;56.10;22.33;;;;;;;1.33;64.33;98657.09;4896215;29;20104;-76
2021/01/16 10:42:58;;;;;;;26.40;14.27;;;;;;;1.39;64.54;98653.56;4895841;29;20036;-75
2021/01/16 10:45:32;;;;;;;31.23;15.23;;;;;;;1.43;64.38;98649.44;4881297;29;20061;-74
2021/01/16 10:48:17;;;;;;;18.63;10.07;;;;;;;1.46;64.35;98650.03;4878415;29;20395;-74
2021/01/16 10:50:45;;;;;;;16.23;9.10;;;;;;;1.52;64.47;98646.47;4900145;29;20035;-74
2021/01/16 10:53:10;;;;;;;19.98;9.55;;;;;;;1.52;64.25;98636.72;4897962;29;20047;-75
2021/01/16 10:55:56;;;;;;;18.85;9.57;;;;;;;1.52;65.03;98631.47;4892124;29;20041;-79
2021/01/16 10:58:26;;;;;;;17.20;10.15;;;;;;;1.56;65.52;98630.00;4896536;29;20037;-75
2021/01/16 11:00:56;;;;;;;15.00;7.78;;;;;;;1.52;65.37;98625.41;4889642;29;20119;-75
2021/01/16 11:03:30;;;;;;;19.00;9.80;;;;;;;1.56;65.62;98626.53;4879297;29;20433;-75
2021/01/16 11:06:02;;;;;;;19.13;9.18;;;;;;;1.55;65.81;98612.56;4879267;29;20059;-75
2021/01/16 11:08:29;;;;;;;21.35;10.43;;;;;;;1.62;65.36;98601.91;4895976;29;20037;-75
2021/01/16 11:10:56;;;;;;;14.23;8.93;;;;;;;1.64;64.42;98597.22;4879123;29;20186;-75
2021/01/16 11:13:25;;;;;;;11.93;7.22;;;;;;;1.63;64.61;98595.59;4895873;29;20038;-75
2021/01/16 11:15:53;;;;;;;16.92;9.43;;;;;;;1.67;64.66;98595.97;4896060;29;20067;-75
2021/01/16 11:18:34;;;;;;;21.48;10.00;;;;;;;1.70;63.99;98585.75;4896074;29;20032;-75
2021/01/16 11:21:08;;;;;;;43.75;13.45;;;;;;;1.70;63.12;98580.47;4878956;29;20028;-75
2021/01/16 11:23:45;;;;;;;13.45;7.57;;;;;;;1.71;62.56;98578.63;4879325;29;20025;-75
2021/01/16 11:26:13;;;;;;;20.08;8.93;;;;;;;1.73;63.02;98574.78;4895799;29;20021;-75
2021/01/16 11:28:52;;;;;;;12.00;6.13;;;;;;;1.79;62.20;98586.22;4879198;29;20029;-75
2021/01/16 11:31:35;;;;;;;11.32;7.05;;;;;;;1.83;61.89;98574.19;4895693;29;20112;-75
2021/01/16 11:34:11;;;;;;;11.65;6.07;;;;;;;1.89;61.65;98583.00;4879041;29;20028;-75
2021/01/16 11:37:00;;;;;;;10.35;6.95;;;;;;;1.96;61.46;98581.03;4878949;29;20545;-75
2021/01/16 11:39:42;;;;;;;9.75;6.63;;;;;;;2.03;61.02;98576.44;4878603;29;20116;-75
2021/01/16 11:42:09;;;;;;;15.18;7.60;;;;;;;2.10;60.97;98586.91;4879021;29;20380;-75
2021/01/16 11:44:57;;;;;;;10.63;6.18;;;;;;;2.17;59.92;98584.94;4878820;29;20484;-75
2021/01/16 11:47:24;;;;;;;11.60;6.63;;;;;;;2.15;60.51;98586.19;4882783;29;20036;-75
2021/01/16 11:49:50;;;;;;;9.45;6.22;;;;;;;2.23;60.46;98583.19;4899847;29;20502;-75
2021/01/16 11:52:16;;;;;;;11.32;6.03;;;;;;;2.21;59.60;98586.06;4899436;29;20043;-74
2021/01/16 11:54:41;;;;;;;10.93;7.32;;;;;;;2.26;59.67;98587.19;4882889;29;20387;-75
2021/01/16 11:57:09;;;;;;;12.32;6.28;;;;;;;2.28;59.53;98585.13;4882448;29;20039;-74
2021/01/16 11:59:35;;;;;;;11.32;6.43;;;;;;;2.31;59.36;98574.91;4882535;29;20040;-74
2021/01/16 12:02:01;;;;;;;11.57;7.15;;;;;;;2.36;59.15;98576.88;4882302;29;20454;-76
2021/01/16 12:04:27;;;;;;;11.43;6.50;;;;;;;2.34;59.05;98571.00;4882581;29;20029;-76
2021/01/16 12:06:53;;;;;;;11.23;6.07;;;;;;;2.35;58.82;98572.63;4882503;29;20111;-76
2021/01/16 12:09:20;;;;;;;14.23;6.40;;;;;;;2.38;59.11;98575.59;4899066;29;20406;-76
2021/01/16 12:11:55;;;;;;;20.67;8.68;;;;;;;2.33;58.56;98572.84;4899511;29;20036;-76
2021/01/16 12:14:21;;;;;;;13.13;7.68;;;;;;;2.37;58.79;98576.63;4899027;29;20056;-76
2021/01/16 12:16:47;;;;;;;10.77;7.00;;;;;;;2.37;59.35;98584.53;4882317;29;20033;-76
2021/01/16 12:19:14;;;;;;;14.85;7.05;;;;;;;2.38;59.22;98583.50;4898753;29;20031;-76
2021/01/16 12:21:44;;;;;;;14.02;7.78;;;;;;;2.38;59.41;98578.22;4882222;29;20060;-76
2021/01/16 12:24:12;;;;;;;8.75;6.57;;;;;;;2.44;59.23;98580.97;4898802;29;20029;-76
2021/01/16 12:26:48;;;;;;;14.25;7.90;;;;;;;2.44;58.76;98579.16;4899095;29;20106;-76
2021/01/16 12:29:36;;;;;;;10.77;6.47;;;;;;;2.45;58.84;98574.66;4881982;29;20207;-76
2021/01/16 12:32:08;;;;;;;12.50;7.90;;;;;;;2.48;58.43;98571.53;4898780;29;20545;-76
2021/01/16 12:34:43;;;;;;;11.32;6.82;;;;;;;2.44;57.59;98570.41;4882090;29;20036;-76
2021/01/16 12:37:08;;;;;;;11.25;6.25;;;;;;;2.38;57.90;98570.31;4881736;29;20028;-76
2021/01/16 12:39:34;;;;;;;12.82;5.88;;;;;;;2.40;57.85;98578.00;4881855;29;20100;-76
2021/01/16 12:41:59;;;;;;;10.65;5.80;;;;;;;2.32;57.62;98565.97;4898494;29;20108;-76
2021/01/16 12:44:25;;;;;;;8.82;5.90;;;;;;;2.34;57.13;98566.53;4898470;29;20037;-76
2021/01/16 12:46:52;;;;;;;12.15;6.85;;;;;;;2.31;56.93;98567.00;4881886;29;20092;-76